sensor_id;sensor_type;location;lat;lon;timestamp;P1;durP1;ratioP1;P2;durP2;ratioP2
21274;SDS011;36472;52.170;20.884;2023-07-31T00:00:29;1.58;;;1.38;;
21274;SDS011;36472;52.170;20.884;2023-07-31T00:03:18;3.25;;;1.77;;
21274;SDS011;36472;52.170;20.884;2023-07-31T00:05:47;1.80;;;1.48;;
21274;SDS011;36472;52.170;20.884;2023-07-31T00:08:17;1.95;;;1.67;;
21274;SDS011;36472;52.170;20.884;2023-07-31T00:10:46;5.35;;;1.77;;
21274;SDS011;36472;52.170;20.884;2023-07-31T00:13:15;2.63;;;1.83;;
21274;SDS011;36472;52.170;20.884;2023-07-31T00:15:43;2.53;;;1.70;;
21274;SDS011;36472;52.170;20.884;2023-07-31T00:18:13;2.22;;;1.77;;
21274;SDS011;36472;52.170;20.884;2023-07-31T00:20:41;2.00;;;1.80;;
21274;SDS011;36472;52.170;20.884;2023-07-31T00:23:10;3.05;;;1.55;;
21274;SDS011;36472;52.170;20.884;2023-07-31T00:25:41;2.83;;;1.45;;
21274;SDS011;36472;52.170;20.884;2023-07-31T00:28:10;1.95;;;1.80;;
21274;SDS011;36472;52.170;20.884;2023-07-31T00:30:39;1.85;;;1.67;;
21274;SDS011;36472;52.170;20.884;2023-07-31T00:33:08;1.70;;;1.60;;
21274;SDS011;36472;52.170;20.884;2023-07-31T00:35:37;1.85;;;1.65;;
21274;SDS011;36472;52.170;20.884;2023-07-31T00:38:06;3.20;;;1.75;;
21274;SDS011;36472;52.170;20.884;2023-07-31T00:40:35;1.80;;;1.58;;
21274;SDS011;36472;52.170;20.884;2023-07-31T00:43:06;1.88;;;1.55;;
21274;SDS011;36472;52.170;20.884;2023-07-31T00:45:35;1.88;;;1.70;;
21274;SDS011;36472;52.170;20.884;2023-07-31T00:48:04;2.00;;;1.80;;
21274;SDS011;36472;52.170;20.884;2023-07-31T00:50:34;3.92;;;1.60;;
21274;SDS011;36472;52.170;20.884;2023-07-31T00:53:04;2.17;;;1.50;;
21274;SDS011;36472;52.170;20.884;2023-07-31T00:55:33;2.10;;;1.90;;
21274;SDS011;36472;52.170;20.884;2023-07-31T00:58:02;2.00;;;1.80;;
21274;SDS011;36472;52.170;20.884;2023-07-31T01:00:32;2.20;;;1.60;;
21274;SDS011;36472;52.170;20.884;2023-07-31T01:03:02;3.33;;;2.00;;
21274;SDS011;36472;52.170;20.884;2023-07-31T01:05:33;2.72;;;1.80;;
21274;SDS011;36472;52.170;20.884;2023-07-31T01:08:12;4.90;;;1.70;;
21274;SDS011;36472;52.170;20.884;2023-07-31T01:10:53;2.92;;;2.10;;
21274;SDS011;36472;52.170;20.884;2023-07-31T01:13:30;2.00;;;1.80;;
21274;SDS011;36472;52.170;20.884;2023-07-31T01:16:00;3.83;;;1.90;;
21274;SDS011;36472;52.170;20.884;2023-07-31T01:18:30;4.30;;;1.75;;
21274;SDS011;36472;52.170;20.884;2023-07-31T01:21:01;2.15;;;1.83;;
21274;SDS011;36472;52.170;20.884;2023-07-31T01:23:56;2.00;;;1.70;;
21274;SDS011;36472;52.170;20.884;2023-07-31T01:26:51;2.25;;;2.05;;
21274;SDS011;36472;52.170;20.884;2023-07-31T01:29:29;3.50;;;1.80;;
21274;SDS011;36472;52.170;20.884;2023-07-31T01:32:11;3.17;;;1.92;;
21274;SDS011;36472;52.170;20.884;2023-07-31T01:34:41;2.30;;;2.10;;
21274;SDS011;36472;52.170;20.884;2023-07-31T01:37:12;2.45;;;2.25;;
21274;SDS011;36472;52.170;20.884;2023-07-31T01:39:41;2.55;;;1.73;;
21274;SDS011;36472;52.170;20.884;2023-07-31T01:42:12;2.22;;;2.00;;
21274;SDS011;36472;52.170;20.884;2023-07-31T01:44:42;2.42;;;1.90;;
21274;SDS011;36472;52.170;20.884;2023-07-31T01:47:11;3.75;;;2.22;;
21274;SDS011;36472;52.170;20.884;2023-07-31T01:49:40;3.45;;;2.33;;
21274;SDS011;36472;52.170;20.884;2023-07-31T01:52:09;2.05;;;1.85;;
21274;SDS011;36472;52.170;20.884;2023-07-31T01:54:39;3.33;;;2.00;;
21274;SDS011;36472;52.170;20.884;2023-07-31T01:57:08;4.13;;;2.40;;
21274;SDS011;36472;52.170;20.884;2023-07-31T01:59:39;3.72;;;2.00;;
21274;SDS011;36472;52.170;20.884;2023-07-31T02:02:07;2.20;;;1.92;;
21274;SDS011;36472;52.170;20.884;2023-07-31T02:04:37;2.70;;;1.80;;
21274;SDS011;36472;52.170;20.884;2023-07-31T02:07:07;2.40;;;2.20;;
21274;SDS011;36472;52.170;20.884;2023-07-31T02:09:36;3.72;;;2.28;;
21274;SDS011;36472;52.170;20.884;2023-07-31T02:12:05;2.60;;;2.25;;
21274;SDS011;36472;52.170;20.884;2023-07-31T02:14:37;2.70;;;2.45;;
21274;SDS011;36472;52.170;20.884;2023-07-31T02:17:07;2.70;;;2.00;;
21274;SDS011;36472;52.170;20.884;2023-07-31T02:19:36;2.40;;;2.13;;
21274;SDS011;36472;52.170;20.884;2023-07-31T02:22:05;2.60;;;2.40;;
21274;SDS011;36472;52.170;20.884;2023-07-31T02:24:34;3.05;;;2.45;;
21274;SDS011;36472;52.170;20.884;2023-07-31T02:27:03;4.18;;;2.42;;
21274;SDS011;36472;52.170;20.884;2023-07-31T02:29:33;3.08;;;2.63;;
21274;SDS011;36472;52.170;20.884;2023-07-31T02:32:03;3.05;;;2.50;;
21274;SDS011;36472;52.170;20.884;2023-07-31T02:34:33;3.35;;;2.33;;
21274;SDS011;36472;52.170;20.884;2023-07-31T02:37:02;3.60;;;2.65;;
21274;SDS011;36472;52.170;20.884;2023-07-31T02:39:31;3.03;;;2.70;;
21274;SDS011;36472;52.170;20.884;2023-07-31T02:42:00;4.00;;;2.78;;
21274;SDS011;36472;52.170;20.884;2023-07-31T02:44:31;3.30;;;2.70;;
21274;SDS011;36472;52.170;20.884;2023-07-31T02:47:00;3.42;;;2.88;;
21274;SDS011;36472;52.170;20.884;2023-07-31T02:49:31;3.17;;;2.53;;
21274;SDS011;36472;52.170;20.884;2023-07-31T02:52:00;5.43;;;2.47;;
21274;SDS011;36472;52.170;20.884;2023-07-31T02:54:29;4.25;;;2.78;;
21274;SDS011;36472;52.170;20.884;2023-07-31T02:56:58;3.30;;;2.55;;
21274;SDS011;36472;52.170;20.884;2023-07-31T02:59:27;5.40;;;2.80;;
21274;SDS011;36472;52.170;20.884;2023-07-31T03:01:56;3.53;;;2.78;;
21274;SDS011;36472;52.170;20.884;2023-07-31T03:04:25;3.17;;;2.75;;
21274;SDS011;36472;52.170;20.884;2023-07-31T03:06:56;4.57;;;2.58;;
21274;SDS011;36472;52.170;20.884;2023-07-31T03:09:26;2.90;;;2.65;;
21274;SDS011;36472;52.170;20.884;2023-07-31T03:11:55;3.63;;;2.58;;
21274;SDS011;36472;52.170;20.884;2023-07-31T03:14:24;3.05;;;2.67;;
21274;SDS011;36472;52.170;20.884;2023-07-31T03:16:53;4.38;;;2.90;;
21274;SDS011;36472;52.170;20.884;2023-07-31T03:19:22;3.55;;;2.40;;
21274;SDS011;36472;52.170;20.884;2023-07-31T03:21:51;3.92;;;2.60;;
21274;SDS011;36472;52.170;20.884;2023-07-31T03:24:21;2.63;;;2.40;;
21274;SDS011;36472;52.170;20.884;2023-07-31T03:26:50;4.35;;;2.85;;
21274;SDS011;36472;52.170;20.884;2023-07-31T03:29:19;3.75;;;2.47;;
21274;SDS011;36472;52.170;20.884;2023-07-31T03:31:51;3.20;;;2.35;;
21274;SDS011;36472;52.170;20.884;2023-07-31T03:34:20;6.22;;;2.60;;
21274;SDS011;36472;52.170;20.884;2023-07-31T03:36:50;3.22;;;2.53;;
21274;SDS011;36472;52.170;20.884;2023-07-31T03:39:19;4.88;;;2.88;;
21274;SDS011;36472;52.170;20.884;2023-07-31T03:41:51;2.80;;;2.50;;
21274;SDS011;36472;52.170;20.884;2023-07-31T03:44:20;2.83;;;2.63;;
21274;SDS011;36472;52.170;20.884;2023-07-31T03:46:49;3.78;;;2.60;;
21274;SDS011;36472;52.170;20.884;2023-07-31T03:49:19;4.00;;;2.90;;
21274;SDS011;36472;52.170;20.884;2023-07-31T03:51:47;3.30;;;2.78;;
21274;SDS011;36472;52.170;20.884;2023-07-31T03:54:18;2.97;;;2.67;;
21274;SDS011;36472;52.170;20.884;2023-07-31T03:56:46;3.72;;;2.70;;
21274;SDS011;36472;52.170;20.884;2023-07-31T03:59:17;4.10;;;2.90;;
21274;SDS011;36472;52.170;20.884;2023-07-31T04:01:46;3.10;;;2.80;;
21274;SDS011;36472;52.170;20.884;2023-07-31T04:04:15;3.55;;;2.67;;
21274;SDS011;36472;52.170;20.884;2023-07-31T04:06:44;3.17;;;2.63;;
21274;SDS011;36472;52.170;20.884;2023-07-31T04:09:13;3.42;;;2.60;;
21274;SDS011;36472;52.170;20.884;2023-07-31T04:11:42;5.55;;;2.65;;
21274;SDS011;36472;52.170;20.884;2023-07-31T04:14:11;3.17;;;2.75;;
21274;SDS011;36472;52.170;20.884;2023-07-31T04:16:41;3.15;;;2.72;;
21274;SDS011;36472;52.170;20.884;2023-07-31T04:19:10;4.68;;;2.30;;
21274;SDS011;36472;52.170;20.884;2023-07-31T04:21:43;3.17;;;2.70;;
21274;SDS011;36472;52.170;20.884;2023-07-31T04:24:12;4.43;;;2.70;;
21274;SDS011;36472;52.170;20.884;2023-07-31T04:26:41;3.72;;;2.60;;
21274;SDS011;36472;52.170;20.884;2023-07-31T04:29:10;5.70;;;2.80;;
21274;SDS011;36472;52.170;20.884;2023-07-31T04:31:39;6.13;;;3.22;;
21274;SDS011;36472;52.170;20.884;2023-07-31T04:34:10;3.97;;;2.58;;
21274;SDS011;36472;52.170;20.884;2023-07-31T04:36:39;6.03;;;2.80;;
21274;SDS011;36472;52.170;20.884;2023-07-31T04:39:08;5.05;;;2.72;;
21274;SDS011;36472;52.170;20.884;2023-07-31T04:41:37;4.30;;;2.72;;
21274;SDS011;36472;52.170;20.884;2023-07-31T04:44:06;5.25;;;2.85;;
21274;SDS011;36472;52.170;20.884;2023-07-31T04:46:35;3.17;;;2.42;;
21274;SDS011;36472;52.170;20.884;2023-07-31T04:49:06;5.45;;;2.70;;
21274;SDS011;36472;52.170;20.884;2023-07-31T04:51:35;3.22;;;2.90;;
21274;SDS011;36472;52.170;20.884;2023-07-31T04:54:04;3.53;;;2.58;;
21274;SDS011;36472;52.170;20.884;2023-07-31T04:56:33;5.97;;;2.60;;
21274;SDS011;36472;52.170;20.884;2023-07-31T04:59:02;4.57;;;2.75;;
21274;SDS011;36472;52.170;20.884;2023-07-31T05:01:30;2.95;;;2.50;;
21274;SDS011;36472;52.170;20.884;2023-07-31T05:04:00;6.30;;;2.58;;
21274;SDS011;36472;52.170;20.884;2023-07-31T05:06:30;3.13;;;2.40;;
21274;SDS011;36472;52.170;20.884;2023-07-31T05:09:01;5.55;;;2.40;;
21274;SDS011;36472;52.170;20.884;2023-07-31T05:11:30;5.78;;;3.05;;
21274;SDS011;36472;52.170;20.884;2023-07-31T05:13:59;3.22;;;2.63;;
21274;SDS011;36472;52.170;20.884;2023-07-31T05:16:27;3.83;;;2.83;;
21274;SDS011;36472;52.170;20.884;2023-07-31T05:18:57;6.25;;;2.92;;
21274;SDS011;36472;52.170;20.884;2023-07-31T05:21:26;5.53;;;3.08;;
21274;SDS011;36472;52.170;20.884;2023-07-31T05:23:56;4.57;;;3.17;;
21274;SDS011;36472;52.170;20.884;2023-07-31T05:26:25;3.50;;;2.85;;
21274;SDS011;36472;52.170;20.884;2023-07-31T05:28:54;5.75;;;3.00;;
21274;SDS011;36472;52.170;20.884;2023-07-31T05:31:24;5.30;;;3.13;;
21274;SDS011;36472;52.170;20.884;2023-07-31T05:33:53;5.18;;;3.13;;
21274;SDS011;36472;52.170;20.884;2023-07-31T05:36:22;5.55;;;3.38;;
21274;SDS011;36472;52.170;20.884;2023-07-31T05:38:51;6.45;;;3.20;;
21274;SDS011;36472;52.170;20.884;2023-07-31T05:41:22;3.70;;;2.65;;
21274;SDS011;36472;52.170;20.884;2023-07-31T05:43:51;7.10;;;3.00;;
21274;SDS011;36472;52.170;20.884;2023-07-31T05:46:20;5.40;;;2.90;;
21274;SDS011;36472;52.170;20.884;2023-07-31T05:48:49;4.75;;;2.60;;
21274;SDS011;36472;52.170;20.884;2023-07-31T05:51:18;6.32;;;2.80;;
21274;SDS011;36472;52.170;20.884;2023-07-31T05:53:47;5.13;;;3.00;;
21274;SDS011;36472;52.170;20.884;2023-07-31T05:56:16;6.70;;;3.20;;
21274;SDS011;36472;52.170;20.884;2023-07-31T05:58:46;5.65;;;3.10;;
21274;SDS011;36472;52.170;20.884;2023-07-31T06:01:15;4.60;;;3.00;;
21274;SDS011;36472;52.170;20.884;2023-07-31T06:03:45;4.70;;;3.15;;
21274;SDS011;36472;52.170;20.884;2023-07-31T06:06:14;4.88;;;3.20;;
21274;SDS011;36472;52.170;20.884;2023-07-31T06:08:43;4.15;;;2.63;;
21274;SDS011;36472;52.170;20.884;2023-07-31T06:11:12;4.30;;;2.75;;
21274;SDS011;36472;52.170;20.884;2023-07-31T06:13:41;4.22;;;3.03;;
21274;SDS011;36472;52.170;20.884;2023-07-31T06:16:12;6.05;;;2.80;;
21274;SDS011;36472;52.170;20.884;2023-07-31T06:18:42;3.83;;;3.08;;
21274;SDS011;36472;52.170;20.884;2023-07-31T06:21:11;6.45;;;3.10;;
21274;SDS011;36472;52.170;20.884;2023-07-31T06:23:40;6.13;;;3.47;;
21274;SDS011;36472;52.170;20.884;2023-07-31T06:26:09;3.95;;;2.67;;
21274;SDS011;36472;52.170;20.884;2023-07-31T06:28:38;4.10;;;3.08;;
21274;SDS011;36472;52.170;20.884;2023-07-31T06:31:07;4.15;;;2.75;;
21274;SDS011;36472;52.170;20.884;2023-07-31T06:33:38;4.78;;;2.70;;
21274;SDS011;36472;52.170;20.884;2023-07-31T06:36:07;4.85;;;2.80;;
21274;SDS011;36472;52.170;20.884;2023-07-31T06:38:36;4.93;;;2.88;;
21274;SDS011;36472;52.170;20.884;2023-07-31T06:41:05;4.85;;;2.63;;
21274;SDS011;36472;52.170;20.884;2023-07-31T06:43:34;5.88;;;2.80;;
21274;SDS011;36472;52.170;20.884;2023-07-31T06:46:04;3.78;;;2.85;;
21274;SDS011;36472;52.170;20.884;2023-07-31T06:48:34;3.80;;;2.80;;
21274;SDS011;36472;52.170;20.884;2023-07-31T06:51:05;3.95;;;2.20;;
21274;SDS011;36472;52.170;20.884;2023-07-31T06:53:34;6.93;;;2.97;;
21274;SDS011;36472;52.170;20.884;2023-07-31T06:56:03;5.00;;;2.42;;
21274;SDS011;36472;52.170;20.884;2023-07-31T06:58:32;3.58;;;2.33;;
21274;SDS011;36472;52.170;20.884;2023-07-31T07:01:01;3.20;;;2.17;;
21274;SDS011;36472;52.170;20.884;2023-07-31T07:03:31;6.65;;;2.55;;
21274;SDS011;36472;52.170;20.884;2023-07-31T07:06:00;6.60;;;2.45;;
21274;SDS011;36472;52.170;20.884;2023-07-31T07:08:31;4.53;;;2.47;;
21274;SDS011;36472;52.170;20.884;2023-07-31T07:10:59;5.15;;;2.60;;
21274;SDS011;36472;52.170;20.884;2023-07-31T07:13:28;4.10;;;2.40;;
21274;SDS011;36472;52.170;20.884;2023-07-31T07:15:57;4.55;;;3.00;;
21274;SDS011;36472;52.170;20.884;2023-07-31T07:18:26;3.22;;;2.40;;
21274;SDS011;36472;52.170;20.884;2023-07-31T07:20:55;4.60;;;2.70;;
21274;SDS011;36472;52.170;20.884;2023-07-31T07:23:25;5.35;;;3.05;;
21274;SDS011;36472;52.170;20.884;2023-07-31T07:25:55;5.22;;;2.75;;
21274;SDS011;36472;52.170;20.884;2023-07-31T07:28:24;4.47;;;2.30;;
21274;SDS011;36472;52.170;20.884;2023-07-31T07:30:55;5.50;;;2.60;;
21274;SDS011;36472;52.170;20.884;2023-07-31T07:33:25;4.60;;;2.70;;
21274;SDS011;36472;52.170;20.884;2023-07-31T07:35:54;3.33;;;2.40;;
21274;SDS011;36472;52.170;20.884;2023-07-31T07:38:23;5.07;;;2.83;;
21274;SDS011;36472;52.170;20.884;2023-07-31T07:40:52;4.60;;;2.50;;
21274;SDS011;36472;52.170;20.884;2023-07-31T07:43:23;5.05;;;2.55;;
21274;SDS011;36472;52.170;20.884;2023-07-31T07:45:52;4.63;;;2.53;;
21274;SDS011;36472;52.170;20.884;2023-07-31T07:48:21;3.38;;;2.38;;
21274;SDS011;36472;52.170;20.884;2023-07-31T07:50:51;2.63;;;2.30;;
21274;SDS011;36472;52.170;20.884;2023-07-31T07:53:21;6.07;;;2.85;;
21274;SDS011;36472;52.170;20.884;2023-07-31T07:55:50;5.05;;;2.60;;
21274;SDS011;36472;52.170;20.884;2023-07-31T07:58:19;5.20;;;2.45;;
21274;SDS011;36472;52.170;20.884;2023-07-31T08:00:52;3.17;;;2.47;;
21274;SDS011;36472;52.170;20.884;2023-07-31T08:03:21;5.22;;;2.42;;
21274;SDS011;36472;52.170;20.884;2023-07-31T08:05:50;3.58;;;2.45;;
21274;SDS011;36472;52.170;20.884;2023-07-31T08:08:19;4.90;;;2.58;;
21274;SDS011;36472;52.170;20.884;2023-07-31T08:10:48;3.03;;;2.60;;
21274;SDS011;36472;52.170;20.884;2023-07-31T08:13:18;5.85;;;2.47;;
21274;SDS011;36472;52.170;20.884;2023-07-31T08:15:47;5.00;;;2.65;;
21274;SDS011;36472;52.170;20.884;2023-07-31T08:18:17;3.05;;;2.13;;
21274;SDS011;36472;52.170;20.884;2023-07-31T08:20:46;4.50;;;2.70;;
21274;SDS011;36472;52.170;20.884;2023-07-31T08:23:15;4.13;;;2.20;;
21274;SDS011;36472;52.170;20.884;2023-07-31T08:25:44;6.10;;;2.30;;
21274;SDS011;36472;52.170;20.884;2023-07-31T08:28:14;3.13;;;2.45;;
21274;SDS011;36472;52.170;20.884;2023-07-31T08:30:43;3.83;;;2.53;;
21274;SDS011;36472;52.170;20.884;2023-07-31T08:33:12;4.30;;;2.15;;
21274;SDS011;36472;52.170;20.884;2023-07-31T08:35:42;5.70;;;2.55;;
21274;SDS011;36472;52.170;20.884;2023-07-31T08:38:12;4.55;;;2.15;;
21274;SDS011;36472;52.170;20.884;2023-07-31T08:40:40;3.90;;;2.15;;
21274;SDS011;36472;52.170;20.884;2023-07-31T08:43:10;3.70;;;2.05;;
21274;SDS011;36472;52.170;20.884;2023-07-31T08:45:39;3.20;;;2.50;;
21274;SDS011;36472;52.170;20.884;2023-07-31T08:48:11;2.65;;;2.03;;
21274;SDS011;36472;52.170;20.884;2023-07-31T08:50:42;4.13;;;2.45;;
21274;SDS011;36472;52.170;20.884;2023-07-31T08:53:12;4.88;;;2.33;;
21274;SDS011;36472;52.170;20.884;2023-07-31T08:55:41;4.25;;;2.25;;
21274;SDS011;36472;52.170;20.884;2023-07-31T08:58:12;3.63;;;2.30;;
21274;SDS011;36472;52.170;20.884;2023-07-31T09:00:42;3.25;;;2.05;;
21274;SDS011;36472;52.170;20.884;2023-07-31T09:03:18;4.57;;;2.22;;
21274;SDS011;36472;52.170;20.884;2023-07-31T09:05:51;3.95;;;2.30;;
21274;SDS011;36472;52.170;20.884;2023-07-31T09:08:21;3.08;;;1.90;;
21274;SDS011;36472;52.170;20.884;2023-07-31T09:10:50;3.85;;;2.00;;
21274;SDS011;36472;52.170;20.884;2023-07-31T09:13:20;4.10;;;1.95;;
21274;SDS011;36472;52.170;20.884;2023-07-31T09:15:48;2.90;;;2.05;;
21274;SDS011;36472;52.170;20.884;2023-07-31T09:18:17;2.70;;;1.70;;
21274;SDS011;36472;52.170;20.884;2023-07-31T09:21:01;3.60;;;1.90;;
21274;SDS011;36472;52.170;20.884;2023-07-31T09:23:41;3.13;;;1.90;;
21274;SDS011;36472;52.170;20.884;2023-07-31T09:26:12;2.65;;;2.13;;
21274;SDS011;36472;52.170;20.884;2023-07-31T09:28:58;2.85;;;1.70;;
21274;SDS011;36472;52.170;20.884;2023-07-31T09:31:40;4.97;;;2.22;;
21274;SDS011;36472;52.170;20.884;2023-07-31T09:34:11;4.07;;;1.98;;
21274;SDS011;36472;52.170;20.884;2023-07-31T09:36:42;4.35;;;2.00;;
21274;SDS011;36472;52.170;20.884;2023-07-31T09:39:13;4.55;;;2.20;;
21274;SDS011;36472;52.170;20.884;2023-07-31T09:41:44;3.53;;;2.05;;
21274;SDS011;36472;52.170;20.884;2023-07-31T09:44:15;3.05;;;1.88;;
21274;SDS011;36472;52.170;20.884;2023-07-31T09:46:45;4.40;;;2.13;;
21274;SDS011;36472;52.170;20.884;2023-07-31T09:49:14;3.47;;;1.70;;
21274;SDS011;36472;52.170;20.884;2023-07-31T09:51:44;2.92;;;1.60;;
21274;SDS011;36472;52.170;20.884;2023-07-31T09:54:14;3.50;;;1.80;;
21274;SDS011;36472;52.170;20.884;2023-07-31T09:56:45;2.83;;;1.63;;
21274;SDS011;36472;52.170;20.884;2023-07-31T09:59:16;2.83;;;1.63;;
21274;SDS011;36472;52.170;20.884;2023-07-31T10:01:50;4.43;;;1.77;;
21274;SDS011;36472;52.170;20.884;2023-07-31T10:04:21;4.75;;;1.85;;
21274;SDS011;36472;52.170;20.884;2023-07-31T10:06:57;3.03;;;1.70;;
21274;SDS011;36472;52.170;20.884;2023-07-31T10:09:31;3.22;;;1.42;;
21274;SDS011;36472;52.170;20.884;2023-07-31T10:12:02;3.63;;;1.50;;
21274;SDS011;36472;52.170;20.884;2023-07-31T10:14:38;4.35;;;1.50;;
21274;SDS011;36472;52.170;20.884;2023-07-31T10:17:08;3.90;;;1.35;;
21274;SDS011;36472;52.170;20.884;2023-07-31T10:19:39;5.22;;;1.50;;
21274;SDS011;36472;52.170;20.884;2023-07-31T10:22:10;2.13;;;1.25;;
21274;SDS011;36472;52.170;20.884;2023-07-31T10:24:41;1.52;;;1.08;;
21274;SDS011;36472;52.170;20.884;2023-07-31T10:27:11;2.15;;;1.17;;
21274;SDS011;36472;52.170;20.884;2023-07-31T10:29:41;2.97;;;1.10;;
21274;SDS011;36472;52.170;20.884;2023-07-31T10:32:14;2.80;;;1.25;;
21274;SDS011;36472;52.170;20.884;2023-07-31T10:34:45;2.38;;;1.10;;
21274;SDS011;36472;52.170;20.884;2023-07-31T10:37:27;1.30;;;1.00;;
21274;SDS011;36472;52.170;20.884;2023-07-31T10:40:05;1.67;;;1.15;;
21274;SDS011;36472;52.170;20.884;2023-07-31T10:42:45;2.13;;;1.00;;
21274;SDS011;36472;52.170;20.884;2023-07-31T10:45:23;3.20;;;1.17;;
21274;SDS011;36472;52.170;20.884;2023-07-31T10:47:58;3.97;;;1.45;;
21274;SDS011;36472;52.170;20.884;2023-07-31T10:50:29;1.80;;;1.23;;
21274;SDS011;36472;52.170;20.884;2023-07-31T10:53:02;1.38;;;1.20;;
21274;SDS011;36472;52.170;20.884;2023-07-31T10:55:31;2.55;;;1.00;;
21274;SDS011;36472;52.170;20.884;2023-07-31T10:58:06;2.53;;;1.20;;
21274;SDS011;36472;52.170;20.884;2023-07-31T11:00:37;3.20;;;1.38;;
21274;SDS011;36472;52.170;20.884;2023-07-31T11:03:10;4.50;;;1.40;;
21274;SDS011;36472;52.170;20.884;2023-07-31T11:05:44;2.80;;;1.40;;
21274;SDS011;36472;52.170;20.884;2023-07-31T11:08:23;2.88;;;1.30;;
21274;SDS011;36472;52.170;20.884;2023-07-31T11:11:04;2.97;;;1.30;;
21274;SDS011;36472;52.170;20.884;2023-07-31T11:13:39;1.88;;;1.00;;
21274;SDS011;36472;52.170;20.884;2023-07-31T11:16:13;1.08;;;0.98;;
21274;SDS011;36472;52.170;20.884;2023-07-31T11:18:42;2.25;;;1.30;;
21274;SDS011;36472;52.170;20.884;2023-07-31T11:21:14;2.00;;;1.33;;
21274;SDS011;36472;52.170;20.884;2023-07-31T11:23:46;4.43;;;1.20;;
21274;SDS011;36472;52.170;20.884;2023-07-31T11:26:17;4.10;;;1.60;;
21274;SDS011;36472;52.170;20.884;2023-07-31T11:28:47;2.67;;;1.40;;
21274;SDS011;36472;52.170;20.884;2023-07-31T11:31:18;3.35;;;1.42;;
21274;SDS011;36472;52.170;20.884;2023-07-31T11:33:48;3.80;;;1.38;;
21274;SDS011;36472;52.170;20.884;2023-07-31T11:36:17;3.78;;;1.48;;
21274;SDS011;36472;52.170;20.884;2023-07-31T11:38:49;3.30;;;1.48;;
21274;SDS011;36472;52.170;20.884;2023-07-31T11:41:19;3.90;;;1.63;;
21274;SDS011;36472;52.170;20.884;2023-07-31T11:43:47;3.45;;;1.45;;
21274;SDS011;36472;52.170;20.884;2023-07-31T11:46:16;2.60;;;1.20;;
21274;SDS011;36472;52.170;20.884;2023-07-31T11:48:46;4.43;;;1.70;;
21274;SDS011;36472;52.170;20.884;2023-07-31T11:51:16;3.80;;;1.60;;
21274;SDS011;36472;52.170;20.884;2023-07-31T11:53:51;3.45;;;1.52;;
21274;SDS011;36472;52.170;20.884;2023-07-31T11:56:25;2.85;;;1.40;;
21274;SDS011;36472;52.170;20.884;2023-07-31T11:58:56;2.55;;;1.73;;
21274;SDS011;36472;52.170;20.884;2023-07-31T12:01:29;2.83;;;1.48;;
21274;SDS011;36472;52.170;20.884;2023-07-31T12:04:00;3.17;;;1.70;;
21274;SDS011;36472;52.170;20.884;2023-07-31T12:06:33;3.95;;;1.55;;
21274;SDS011;36472;52.170;20.884;2023-07-31T12:09:04;3.60;;;1.90;;
21274;SDS011;36472;52.170;20.884;2023-07-31T12:11:42;4.57;;;1.60;;
21274;SDS011;36472;52.170;20.884;2023-07-31T12:14:19;3.00;;;1.67;;
21274;SDS011;36472;52.170;20.884;2023-07-31T12:16:54;3.95;;;2.10;;
21274;SDS011;36472;52.170;20.884;2023-07-31T12:19:24;2.92;;;1.80;;
21274;SDS011;36472;52.170;20.884;2023-07-31T12:21:58;2.88;;;1.67;;
21274;SDS011;36472;52.170;20.884;2023-07-31T12:24:29;2.97;;;1.60;;
21274;SDS011;36472;52.170;20.884;2023-07-31T12:26:58;2.90;;;1.63;;
21274;SDS011;36472;52.170;20.884;2023-07-31T12:29:33;2.58;;;1.70;;
21274;SDS011;36472;52.170;20.884;2023-07-31T12:32:20;2.25;;;1.50;;
21274;SDS011;36472;52.170;20.884;2023-07-31T12:34:50;2.67;;;1.20;;
21274;SDS011;36472;52.170;20.884;2023-07-31T12:37:20;2.47;;;1.75;;
21274;SDS011;36472;52.170;20.884;2023-07-31T12:39:51;3.28;;;1.38;;
21274;SDS011;36472;52.170;20.884;2023-07-31T12:42:20;4.28;;;1.48;;
21274;SDS011;36472;52.170;20.884;2023-07-31T12:44:48;2.80;;;1.85;;
21274;SDS011;36472;52.170;20.884;2023-07-31T12:47:17;4.15;;;1.20;;
21274;SDS011;36472;52.170;20.884;2023-07-31T12:49:46;4.57;;;1.27;;
21274;SDS011;36472;52.170;20.884;2023-07-31T12:52:15;1.92;;;1.60;;
21274;SDS011;36472;52.170;20.884;2023-07-31T12:54:44;2.20;;;1.30;;
21274;SDS011;36472;52.170;20.884;2023-07-31T12:57:14;2.80;;;1.30;;
21274;SDS011;36472;52.170;20.884;2023-07-31T12:59:43;4.70;;;1.50;;
21274;SDS011;36472;52.170;20.884;2023-07-31T13:02:12;4.68;;;1.40;;
21274;SDS011;36472;52.170;20.884;2023-07-31T13:04:44;3.78;;;1.45;;
21274;SDS011;36472;52.170;20.884;2023-07-31T13:07:13;4.90;;;1.20;;
21274;SDS011;36472;52.170;20.884;2023-07-31T13:09:42;2.97;;;1.00;;
21274;SDS011;36472;52.170;20.884;2023-07-31T13:12:11;5.90;;;1.95;;
21274;SDS011;36472;52.170;20.884;2023-07-31T13:14:41;6.25;;;1.33;;
21274;SDS011;36472;52.170;20.884;2023-07-31T13:17:10;6.15;;;1.30;;
21274;SDS011;36472;52.170;20.884;2023-07-31T13:19:39;4.57;;;1.02;;
21274;SDS011;36472;52.170;20.884;2023-07-31T13:22:08;2.17;;;1.10;;
21274;SDS011;36472;52.170;20.884;2023-07-31T13:24:37;3.53;;;1.10;;
21274;SDS011;36472;52.170;20.884;2023-07-31T13:27:06;3.83;;;1.35;;
21274;SDS011;36472;52.170;20.884;2023-07-31T13:29:35;2.70;;;1.17;;
21274;SDS011;36472;52.170;20.884;2023-07-31T13:32:05;3.25;;;1.50;;
21274;SDS011;36472;52.170;20.884;2023-07-31T13:34:34;2.55;;;1.30;;
21274;SDS011;36472;52.170;20.884;2023-07-31T13:37:04;3.80;;;1.38;;
21274;SDS011;36472;52.170;20.884;2023-07-31T13:39:34;3.83;;;1.58;;
21274;SDS011;36472;52.170;20.884;2023-07-31T13:42:03;3.58;;;1.52;;
21274;SDS011;36472;52.170;20.884;2023-07-31T13:44:35;4.18;;;1.40;;
21274;SDS011;36472;52.170;20.884;2023-07-31T13:47:05;5.43;;;1.20;;
21274;SDS011;36472;52.170;20.884;2023-07-31T13:49:35;4.22;;;1.50;;
21274;SDS011;36472;52.170;20.884;2023-07-31T13:52:06;3.45;;;1.50;;
21274;SDS011;36472;52.170;20.884;2023-07-31T13:54:35;2.60;;;1.40;;
21274;SDS011;36472;52.170;20.884;2023-07-31T13:57:04;4.70;;;1.60;;
21274;SDS011;36472;52.170;20.884;2023-07-31T13:59:34;3.15;;;1.52;;
21274;SDS011;36472;52.170;20.884;2023-07-31T14:02:03;4.65;;;1.75;;
21274;SDS011;36472;52.170;20.884;2023-07-31T14:04:35;4.95;;;1.60;;
21274;SDS011;36472;52.170;20.884;2023-07-31T14:07:04;2.78;;;1.60;;
21274;SDS011;36472;52.170;20.884;2023-07-31T14:09:33;3.67;;;2.03;;
21274;SDS011;36472;52.170;20.884;2023-07-31T14:12:03;5.53;;;1.73;;
21274;SDS011;36472;52.170;20.884;2023-07-31T14:14:33;4.10;;;1.80;;
21274;SDS011;36472;52.170;20.884;2023-07-31T14:17:02;3.70;;;1.50;;
21274;SDS011;36472;52.170;20.884;2023-07-31T14:19:33;3.35;;;1.45;;
21274;SDS011;36472;52.170;20.884;2023-07-31T14:22:03;4.07;;;1.98;;
21274;SDS011;36472;52.170;20.884;2023-07-31T14:24:37;3.67;;;1.73;;
21274;SDS011;36472;52.170;20.884;2023-07-31T14:27:07;5.53;;;1.80;;
21274;SDS011;36472;52.170;20.884;2023-07-31T14:29:37;4.25;;;1.48;;
21274;SDS011;36472;52.170;20.884;2023-07-31T14:32:07;3.25;;;1.38;;
21274;SDS011;36472;52.170;20.884;2023-07-31T14:34:37;8.10;;;1.80;;
21274;SDS011;36472;52.170;20.884;2023-07-31T14:37:07;3.15;;;1.58;;
21274;SDS011;36472;52.170;20.884;2023-07-31T14:39:36;3.15;;;1.75;;
21274;SDS011;36472;52.170;20.884;2023-07-31T14:42:07;3.63;;;1.40;;
21274;SDS011;36472;52.170;20.884;2023-07-31T14:44:36;2.97;;;1.50;;
21274;SDS011;36472;52.170;20.884;2023-07-31T14:47:06;4.80;;;2.10;;
21274;SDS011;36472;52.170;20.884;2023-07-31T14:49:35;7.13;;;1.80;;
21274;SDS011;36472;52.170;20.884;2023-07-31T14:52:07;4.78;;;1.50;;